Itaja, Brazil
Current Conditions -  °F | °C
As of 7:15 AM on Saturday 22 Nov 2014 (Local Time) from SBMS Reporting Station
Broken Clouds Broken Clouds  
Wind Chill: 82°   Ceiling: 2500
Heat Index: 86°   Visibility: 6mi
Dew Point: 70°   Wind: 7mph
Humidity: 66%   Direction: 110°ESE
Pressure: 29.91"   Gusts: NA
Location:  5.64°S, 36.87°W
Report Text: SBMS 221015Z 11006KT 9999 BKN025 28/21 Q1013
Loading
Personal Weather Stations






























Interactive Weather Map New forecast layout! Learn more

10-Day Weather Forecast

Advertisements
Track Severe Weather on mobile